Time;durP1;ratioP1;P1;durP2;ratioP2;P2;SDS_P1;SDS_P2;PMS_P1;PMS_P2;Temp;Humidity;BMP_temperature;BMP_pressure;BME280_temperature;BME280_humidity;BME280_pressure;Samples;Min_cycle;Max_cycle;Signal;HPM_P1;HPM_P2
2023/06/04 00:00:48;;;;;;;7.88;3.63;;;;;;;;;;5056799;28;20056;-73
2023/06/04 00:03:13;;;;;;;5.38;3.50;;;;;;;;;;5057169;28;20029;-73
2023/06/04 00:05:39;;;;;;;6.07;3.95;;;;;;;;;;5054819;28;20029;-74
2023/06/04 00:08:05;;;;;;;7.10;4.38;;;;;;;;;;5053969;28;20051;-73
2023/06/04 00:10:33;;;;;;;8.30;3.72;;;;;;;;;;5054994;28;20036;-73
2023/06/04 00:12:59;;;;;;;7.07;3.70;;;;;;;;;;5054825;28;20112;-73
2023/06/04 00:15:25;;;;;;;6.32;3.88;;;;;;;;;;5054783;28;20390;-73
2023/06/04 00:17:51;;;;;;;5.65;3.38;;;;;;;;;;5035929;28;20051;-73
2023/06/04 00:20:18;;;;;;;5.95;3.25;;;;;;;;;;5054489;28;20479;-73
2023/06/04 00:22:44;;;;;;;7.10;3.75;;;;;;;;;;5054386;28;20021;-73
2023/06/04 00:25:10;;;;;;;6.63;4.05;;;;;;;;;;5054459;28;20425;-73
2023/06/04 00:27:37;;;;;;;4.63;3.53;;;;;;;;;;5053718;28;20031;-72
2023/06/04 00:30:03;;;;;;;4.90;3.72;;;;;;;;;;5036398;28;20116;-75
2023/06/04 00:32:29;;;;;;;6.68;3.95;;;;;;;;;;5054550;28;20036;-73
2023/06/04 00:34:57;;;;;;;6.03;3.85;;;;;;;;;;5054143;28;20029;-73
2023/06/04 00:37:24;;;;;;;7.85;3.85;;;;;;;;;;5053560;28;20071;-75
2023/06/04 00:39:50;;;;;;;6.80;3.53;;;;;;;;;;5054340;28;20021;-74
2023/06/04 00:42:16;;;;;;;6.32;3.45;;;;;;;;;;5054653;28;20498;-75
2023/06/04 00:44:44;;;;;;;6.07;3.83;;;;;;;;;;5054017;28;20111;-74
2023/06/04 00:47:13;;;;;;;4.90;3.58;;;;;;;;;;5053374;28;20487;-73
2023/06/04 00:49:41;;;;;;;5.20;3.10;;;;;;;;;;5053702;28;20029;-74
2023/06/04 00:52:08;;;;;;;5.57;3.70;;;;;;;;;;5035965;28;20032;-74
2023/06/04 00:54:35;;;;;;;5.60;3.05;;;;;;;;;;5053881;28;20025;-72
2023/06/04 00:57:01;;;;;;;7.43;3.20;;;;;;;;;;5053338;28;20130;-73
2023/06/04 00:59:27;;;;;;;10.20;3.63;;;;;;;;;;5053084;28;20483;-74
2023/06/04 01:01:53;;;;;;;6.40;4.15;;;;;;;;;;5053153;28;20021;-74
2023/06/04 01:04:24;;;;;;;6.88;3.35;;;;;;;;;;5053111;28;20113;-74
2023/06/04 01:06:51;;;;;;;5.57;3.35;;;;;;;;;;5033715;28;20033;-74
2023/06/04 01:09:17;;;;;;;4.85;2.60;;;;;;;;;;5033320;28;20025;-74
2023/06/04 01:11:43;;;;;;;7.28;3.30;;;;;;;;;;5015942;28;20078;-74
2023/06/04 01:14:10;;;;;;;6.35;3.05;;;;;;;;;;5033728;28;20025;-75
2023/06/04 01:16:42;;;;;;;6.35;3.53;;;;;;;;;;5033390;28;20104;-74
2023/06/04 01:19:20;;;;;;;4.57;2.85;;;;;;;;;;5033120;28;20086;-74
2023/06/04 01:21:48;;;;;;;8.65;3.13;;;;;;;;;;5015950;28;20025;-74
2023/06/04 01:24:15;;;;;;;7.68;3.00;;;;;;;;;;5033276;28;20345;-74
2023/06/04 01:26:42;;;;;;;4.30;3.00;;;;;;;;;;5033121;28;20480;-74
2023/06/04 01:29:08;;;;;;;6.13;3.15;;;;;;;;;;5032609;28;20029;-75
2023/06/04 01:31:34;;;;;;;7.65;3.45;;;;;;;;;;5035377;28;20018;-74
2023/06/04 01:34:00;;;;;;;8.70;3.03;;;;;;;;;;5063272;23;20454;-76
2023/06/04 01:36:26;;;;;;;4.78;2.70;;;;;;;;;;5053477;28;20068;-76
2023/06/04 01:38:52;;;;;;;7.13;3.10;;;;;;;;;;5035948;28;20027;-75
2023/06/04 01:41:18;;;;;;;4.13;2.75;;;;;;;;;;5053539;28;20394;-76
2023/06/04 01:43:44;;;;;;;5.10;3.00;;;;;;;;;;5035162;28;20033;-75
2023/06/04 01:46:10;;;;;;;5.68;3.03;;;;;;;;;;5053053;28;20033;-75
2023/06/04 01:48:37;;;;;;;3.97;2.75;;;;;;;;;;5034680;28;20025;-75
2023/06/04 01:51:03;;;;;;;6.68;2.80;;;;;;;;;;5053293;28;20455;-75
2023/06/04 01:53:29;;;;;;;5.50;2.80;;;;;;;;;;5035330;28;20029;-75
2023/06/04 01:55:57;;;;;;;5.40;3.05;;;;;;;;;;5053478;28;20079;-75
2023/06/04 01:58:26;;;;;;;4.03;2.53;;;;;;;;;;5052722;28;20104;-76
2023/06/04 02:00:54;;;;;;;4.28;2.88;;;;;;;;;;5054171;28;20052;-75
2023/06/04 02:03:21;;;;;;;4.57;2.70;;;;;;;;;;5054244;28;20025;-75
2023/06/04 02:05:47;;;;;;;6.97;2.88;;;;;;;;;;5054815;28;20100;-76
2023/06/04 02:08:18;;;;;;;4.25;2.50;;;;;;;;;;5037595;28;20028;-76
2023/06/04 02:10:45;;;;;;;5.07;2.85;;;;;;;;;;5037867;28;20017;-76
2023/06/04 02:13:11;;;;;;;6.40;3.15;;;;;;;;;;5053027;28;20028;-76
2023/06/04 02:15:37;;;;;;;4.35;3.08;;;;;;;;;;5052413;28;20029;-76
2023/06/04 02:18:16;;;;;;;5.78;2.53;;;;;;;;;;5053581;28;20032;-76
2023/06/04 02:20:43;;;;;;;8.68;2.85;;;;;;;;;;5034720;28;20025;-74
2023/06/04 02:23:09;;;;;;;5.53;2.70;;;;;;;;;;5034542;28;20491;-76
2023/06/04 02:25:35;;;;;;;5.07;2.72;;;;;;;;;;5052530;28;20032;-76
2023/06/04 02:28:01;;;;;;;4.72;2.63;;;;;;;;;;5051663;28;20025;-75
2023/06/04 02:30:27;;;;;;;5.03;2.70;;;;;;;;;;5052187;28;20317;-75
2023/06/04 02:32:54;;;;;;;4.75;2.80;;;;;;;;;;5052608;28;20116;-74
2023/06/04 02:35:22;;;;;;;4.43;2.67;;;;;;;;;;5034285;28;20549;-75
2023/06/04 02:37:49;;;;;;;5.22;2.45;;;;;;;;;;5051591;28;20036;-75
2023/06/04 02:40:15;;;;;;;4.47;3.08;;;;;;;;;;5051930;28;20051;-75
2023/06/04 02:42:41;;;;;;;3.70;2.80;;;;;;;;;;5052302;28;20029;-75
2023/06/04 02:45:07;;;;;;;6.35;2.70;;;;;;;;;;5052034;28;20075;-75
2023/06/04 02:47:33;;;;;;;5.65;2.80;;;;;;;;;;5051378;28;20028;-75
2023/06/04 02:49:59;;;;;;;6.70;3.03;;;;;;;;;;5051752;28;20020;-75
2023/06/04 02:52:25;;;;;;;6.03;3.10;;;;;;;;;;5034167;28;20021;-76
2023/06/04 02:54:51;;;;;;;6.57;3.15;;;;;;;;;;5034232;28;20029;-74
2023/06/04 02:57:17;;;;;;;3.45;2.60;;;;;;;;;;5051641;28;20033;-74
2023/06/04 02:59:43;;;;;;;3.85;2.80;;;;;;;;;;5052359;28;20033;-75
2023/06/04 03:02:10;;;;;;;4.13;2.80;;;;;;;;;;5051987;28;20108;-76
2023/06/04 03:04:37;;;;;;;6.57;3.80;;;;;;;;;;5051831;28;20029;-76
2023/06/04 03:07:03;;;;;;;5.85;2.85;;;;;;;;;;5048689;28;20074;-76
2023/06/04 03:09:30;;;;;;;4.78;2.45;;;;;;;;;;5051208;28;20070;-76
2023/06/04 03:12:03;;;;;;;3.88;2.72;;;;;;;;;;5051632;28;20111;-75
2023/06/04 03:14:32;;;;;;;8.15;2.92;;;;;;;;;;5051889;28;20103;-76
2023/06/04 03:17:07;;;;;;;3.90;2.35;;;;;;;;;;5050605;28;20029;-74
2023/06/04 03:19:33;;;;;;;4.53;2.97;;;;;;;;;;5051124;28;20399;-75
2023/06/04 03:22:00;;;;;;;4.50;2.60;;;;;;;;;;5050326;28;20074;-76
2023/06/04 03:24:26;;;;;;;5.20;2.58;;;;;;;;;;5051890;28;20086;-75
2023/06/04 03:26:52;;;;;;;3.85;2.72;;;;;;;;;;5051766;28;20111;-75
2023/06/04 03:29:18;;;;;;;3.90;2.47;;;;;;;;;;5051856;28;20104;-75
2023/06/04 03:31:45;;;;;;;3.53;2.50;;;;;;;;;;5051763;28;20588;-75
2023/06/04 03:34:11;;;;;;;6.43;2.50;;;;;;;;;;5051475;28;20040;-75
2023/06/04 03:36:37;;;;;;;4.18;2.58;;;;;;;;;;5051527;28;20387;-75
2023/06/04 03:39:04;;;;;;;7.43;2.05;;;;;;;;;;5051733;28;20025;-76
2023/06/04 03:41:30;;;;;;;4.47;3.03;;;;;;;;;;5033899;28;20021;-76
2023/06/04 03:43:56;;;;;;;4.05;2.50;;;;;;;;;;5051433;28;20028;-76
2023/06/04 03:46:25;;;;;;;3.53;2.08;;;;;;;;;;5051609;28;20028;-76
2023/06/04 03:48:51;;;;;;;4.22;2.22;;;;;;;;;;5033533;28;20074;-76
2023/06/04 03:51:17;;;;;;;6.82;2.38;;;;;;;;;;5051570;28;20116;-77
2023/06/04 03:53:43;;;;;;;6.70;2.38;;;;;;;;;;5033409;28;20061;-77
2023/06/04 03:56:09;;;;;;;4.95;2.20;;;;;;;;;;5051354;28;20119;-76
2023/06/04 03:58:38;;;;;;;4.03;1.95;;;;;;;;;;5051690;28;20035;-74
2023/06/04 04:01:05;;;;;;;6.63;2.78;;;;;;;;;;5051375;28;20487;-74
2023/06/04 04:03:31;;;;;;;3.38;2.42;;;;;;;;;;5033211;28;20028;-75
2023/06/04 04:05:57;;;;;;;3.70;2.40;;;;;;;;;;5051334;28;20386;-75
2023/06/04 04:08:25;;;;;;;3.72;2.25;;;;;;;;;;5051210;28;20044;-74
2023/06/04 04:10:51;;;;;;;4.22;2.05;;;;;;;;;;5051231;28;20032;-75
2023/06/04 04:13:17;;;;;;;2.47;2.10;;;;;;;;;;5051261;28;20025;-75
2023/06/04 04:15:43;;;;;;;4.00;2.10;;;;;;;;;;5051286;28;20052;-75
2023/06/04 04:18:10;;;;;;;2.50;2.03;;;;;;;;;;5033053;28;20707;-75
2023/06/04 04:20:36;;;;;;;4.32;2.15;;;;;;;;;;5051417;28;20029;-75
2023/06/04 04:23:02;;;;;;;4.18;2.63;;;;;;;;;;5051204;28;20420;-75
2023/06/04 04:25:28;;;;;;;3.92;1.95;;;;;;;;;;5033558;28;20063;-76
2023/06/04 04:27:56;;;;;;;1.92;1.60;;;;;;;;;;5033364;28;20029;-77
2023/06/04 04:30:23;;;;;;;2.35;2.05;;;;;;;;;;5051364;28;20492;-76
2023/06/04 04:32:49;;;;;;;3.08;2.10;;;;;;;;;;5053330;28;20364;-76
2023/06/04 04:35:18;;;;;;;2.40;2.03;;;;;;;;;;5054075;28;20031;-77
2023/06/04 04:37:44;;;;;;;2.30;2.10;;;;;;;;;;5051412;28;20103;-76
2023/06/04 04:40:11;;;;;;;2.63;2.05;;;;;;;;;;5054818;28;20075;-76
2023/06/04 04:42:38;;;;;;;2.60;2.25;;;;;;;;;;5054769;28;20063;-76
2023/06/04 04:45:04;;;;;;;2.60;1.85;;;;;;;;;;5054547;28;20029;-75
2023/06/04 04:47:30;;;;;;;2.90;1.73;;;24.50;29.60;;;;;;5054214;28;20468;-76
2023/06/04 04:49:55;;;;;;;2.80;2.30;;;24.60;29.10;;;;;;5054524;28;20029;-76
2023/06/04 04:52:21;;;;;;;2.60;1.60;;;25.00;28.40;;;;;;5054586;28;20497;-76
2023/06/04 04:54:46;;;;;;;1.80;1.60;;;25.50;27.70;;;;;;5036577;28;20025;-75
2023/06/04 04:57:12;;;;;;;2.55;1.75;;;25.70;27.70;;;;;;5054359;28;20399;-76
2023/06/04 04:59:38;;;;;;;3.17;2.42;;;;;;;;;;5036642;28;20032;-76
2023/06/04 05:02:04;;;;;;;2.55;1.60;;;26.20;26.90;;;;;;5036989;28;20025;-76
2023/06/04 05:04:30;;;;;;;2.80;2.10;;;26.30;26.60;;;;;;5054526;28;20467;-75
2023/06/04 05:06:55;;;;;;;3.50;1.92;;;25.90;26.70;;;;;;5054511;28;20104;-75
2023/06/04 05:09:21;;;;;;;2.40;1.77;;;26.40;25.80;;;;;;5053972;28;20035;-75
2023/06/04 05:11:46;;;;;;;2.22;1.70;;;26.50;26.30;;;;;;5047152;28;20423;-74
2023/06/04 05:14:12;;;;;;;2.17;1.70;;;26.90;25.70;;;;;;5037100;28;20024;-75
2023/06/04 05:16:40;;;;;;;5.07;2.03;;;27.30;25.20;;;;;;5030636;28;20036;-75
2023/06/04 05:19:06;;;;;;;6.18;1.80;;;;;;;;;;5022997;28;20025;-74
2023/06/04 05:21:32;;;;;;;3.28;2.20;;;;;;;;;;5032911;28;20390;-74
2023/06/04 05:23:58;;;;;;;4.85;1.85;;;26.40;26.20;;;;;;5027758;28;20033;-74
2023/06/04 05:26:27;;;;;;;4.45;1.92;;;27.10;25.40;;;;;;5021761;28;20444;-74
2023/06/04 05:28:53;;;;;;;4.38;2.00;;;27.60;24.80;;;;;;5053147;28;20072;-73
2023/06/04 05:31:19;;;;;;;3.92;1.50;;;27.70;24.50;;;;;;5045392;28;20100;-74
2023/06/04 05:33:45;;;;;;;3.75;2.00;;;28.10;24.00;;;;;;5053710;28;20029;-73
2023/06/04 05:36:12;;;;;;;2.35;1.83;;;28.50;23.90;;;;;;5035851;28;20399;-74
2023/06/04 05:38:37;;;;;;;2.22;1.60;;;28.00;23.60;;;;;;5015298;28;20545;-74
2023/06/04 05:41:03;;;;;;;4.07;2.00;;;28.50;23.70;;;;;;5033839;28;20029;-75
2023/06/04 05:43:29;;;;;;;3.83;2.10;;;29.00;22.90;;;;;;5033319;28;20029;-68
2023/06/04 05:45:55;;;;;;;5.30;2.00;;;;;;;;;;5033263;28;20030;-68
2023/06/04 05:48:21;;;;;;;4.22;1.77;;;;;;;;;;5033223;28;20454;-68
2023/06/04 05:50:47;;;;;;;2.60;2.05;;;26.50;26.90;;;;;;5044432;28;20039;-68
2023/06/04 05:53:13;;;;;;;2.65;1.88;;;27.00;25.60;;;;;;5053035;28;20112;-68
2023/06/04 05:55:38;;;;;;;4.13;1.77;;;28.00;24.20;;;;;;5053025;28;20021;-68
2023/06/04 05:58:04;;;;;;;4.47;2.28;;;28.10;23.90;;;;;;5052796;28;20017;-68
2023/06/04 06:00:30;;;;;;;5.00;2.05;;;27.90;23.90;;;;;;5035207;28;20029;-68
2023/06/04 06:02:56;;;;;;;2.72;2.03;;;27.30;24.40;;;;;;5052991;28;20021;-69
2023/06/04 06:05:21;;;;;;;2.25;1.58;;;28.10;23.80;;;;;;5049705;28;20017;-68
2023/06/04 06:07:47;;;;;;;4.13;1.88;;;;;;;;;;5037299;28;20402;-69
2023/06/04 06:10:15;;;;;;;6.90;2.17;;;28.00;24.90;;;;;;5050895;28;20059;-69
2023/06/04 06:12:41;;;;;;;7.20;1.75;;;28.20;25.00;;;;;;5043084;28;20104;-68
2023/06/04 06:15:07;;;;;;;3.47;1.83;;;28.40;24.20;;;;;;5051496;28;20522;-69
2023/06/04 06:17:33;;;;;;;3.95;1.90;;;;;;;;;;5043109;28;20074;-68
2023/06/04 06:20:00;;;;;;;6.30;1.98;;;;;;;;;;5046141;28;20454;-69
2023/06/04 06:22:27;;;;;;;5.68;1.90;;;27.20;25.20;;;;;;5032913;28;20022;-68
2023/06/04 06:24:52;;;;;;;3.83;2.20;;;27.70;25.00;;;;;;5039617;28;20104;-69
2023/06/04 06:27:18;;;;;;;2.47;2.00;;;;;;;;;;5042235;28;20155;-70
2023/06/04 06:29:44;;;;;;;2.40;2.20;;;26.90;26.20;;;;;;5041995;28;20483;-69
2023/06/04 06:32:11;;;;;;;3.05;2.03;;;;;;;;;;5051136;28;20028;-70
2023/06/04 06:34:37;;;;;;;2.72;2.38;;;26.30;26.40;;;;;;5051520;28;20036;-69
2023/06/04 06:37:03;;;;;;;4.63;1.95;;;26.80;26.00;;;;;;5050396;28;20025;-69
2023/06/04 06:39:29;;;;;;;6.05;2.40;;;27.70;25.00;;;;;;5050932;28;20550;-69
2023/06/04 06:41:55;;;;;;;4.78;2.33;;;28.50;24.50;;;;;;5033665;28;20027;-69
2023/06/04 06:44:20;;;;;;;2.70;2.00;;;29.10;23.40;;;;;;5051633;28;20067;-70
2023/06/04 06:46:48;;;;;;;3.50;2.30;;;;;;;;;;5033788;28;20021;-69
2023/06/04 06:49:14;;;;;;;2.42;2.17;;;;;;;;;;5050885;28;20028;-69
2023/06/04 06:51:40;;;;;;;3.65;1.88;;;26.90;25.70;;;;;;5050607;28;20021;-69
2023/06/04 06:54:08;;;;;;;3.75;2.10;;;28.20;23.90;;;;;;5050573;28;20029;-69
2023/06/04 06:56:34;;;;;;;5.57;2.00;;;;;;;;;;5050943;28;20029;-69
2023/06/04 06:59:00;;;;;;;4.07;2.60;;;;;;;;;;5051908;28;20086;-69
2023/06/04 07:01:26;;;;;;;2.17;1.98;;;26.40;26.30;;;;;;5051988;28;20032;-69
2023/06/04 07:03:52;;;;;;;2.78;2.05;;;;;;;;;;5052107;28;20029;-69
2023/06/04 07:06:18;;;;;;;5.38;2.00;;;27.60;24.70;;;;;;5051851;28;20098;-69
2023/06/04 07:08:43;;;;;;;3.65;2.05;;;28.50;23.80;;;;;;5051815;28;20048;-69
2023/06/04 07:11:12;;;;;;;3.95;2.08;;;27.90;24.70;;;;;;5051921;28;20100;-70
2023/06/04 07:13:41;;;;;;;4.60;2.30;;;;;;;;;;5033877;28;20033;-70
2023/06/04 07:16:06;;;;;;;10.65;2.13;;;27.70;24.20;;;;;;5051911;28;20479;-69
2023/06/04 07:18:32;;;;;;;4.85;1.95;;;27.70;23.70;;;;;;5051342;28;20071;-69
2023/06/04 07:20:58;;;;;;;2.45;1.60;;;27.80;23.40;;;;;;5051499;28;20453;-68
2023/06/04 07:23:24;;;;;;;2.72;1.83;;;28.90;23.40;;;;;;5051636;28;20025;-69
2023/06/04 07:25:50;;;;;;;2.15;1.58;;;;;;;;;;5051662;28;20475;-68
2023/06/04 07:28:16;;;;;;;3.70;2.08;;;30.70;20.50;;;;;;5051080;28;20020;-67
2023/06/04 07:30:42;;;;;;;2.13;1.73;;;31.90;19.90;;;;;;5051356;28;20067;-68
2023/06/04 07:33:08;;;;;;;4.25;1.60;;;30.00;20.70;;;;;;5051427;28;20399;-68
2023/06/04 07:35:33;;;;;;;5.05;1.60;;;29.50;21.50;;;;;;5052313;28;20032;-68
2023/06/04 07:38:00;;;;;;;2.38;1.90;;;;;;;;;;5051035;28;20049;-68
2023/06/04 07:40:25;;;;;;;2.08;1.50;;;29.80;21.00;;;;;;5051464;28;20129;-69
2023/06/04 07:42:51;;;;;;;3.65;1.50;;;29.70;23.00;;;;;;5051139;28;20025;-69
2023/06/04 07:45:16;;;;;;;1.73;1.27;;;30.80;21.20;;;;;;5051304;28;20074;-69
2023/06/04 07:47:43;;;;;;;2.85;1.20;;;32.90;18.90;;;;;;5051243;28;20044;-70
2023/06/04 07:50:09;;;;;;;4.10;1.63;;;33.70;19.00;;;;;;5051288;28;20040;-68
2023/06/04 07:52:34;;;;;;;6.00;1.92;;;34.50;19.20;;;;;;5051770;28;20021;-68
2023/06/04 07:55:01;;;;;;;3.67;1.40;;;31.70;19.90;;;;;;5051230;28;20021;-68
2023/06/04 07:57:27;;;;;;;4.68;1.70;;;;;;;;;;5050952;28;20033;-69
2023/06/04 07:59:52;;;;;;;8.07;1.55;;;30.30;21.10;;;;;;5051110;28;20028;-69
2023/06/04 08:02:18;;;;;;;4.93;1.40;;;31.30;19.90;;;;;;5051151;28;20101;-69
2023/06/04 08:04:45;;;;;;;6.47;1.60;;;30.30;20.70;;;;;;5050622;28;20075;-69
2023/06/04 08:07:11;;;;;;;2.15;1.52;;;29.60;21.40;;;;;;5051355;28;20079;-68
2023/06/04 08:09:36;;;;;;;3.75;1.45;;;29.30;21.70;;;;;;5050967;28;20029;-68
2023/06/04 08:12:02;;;;;;;3.35;1.98;;;30.50;21.20;;;;;;5051026;28;20100;-68
2023/06/04 08:14:28;;;;;;;3.58;1.45;;;32.00;19.50;;;;;;5053590;28;20494;-69
2023/06/04 08:16:54;;;;;;;2.33;1.73;;;32.80;19.70;;;;;;5055008;28;20372;-70
2023/06/04 08:19:20;;;;;;;2.67;1.40;;;33.50;18.90;;;;;;5036549;28;20020;-69
2023/06/04 08:21:47;;;;;;;2.95;1.60;;;33.90;18.70;;;;;;5055064;28;20533;-69
2023/06/04 08:24:13;;;;;;;1.58;1.23;;;34.00;18.50;;;;;;5054566;28;20475;-69
2023/06/04 08:26:39;;;;;;;2.60;1.60;;;33.80;18.20;;;;;;5054828;28;20036;-69
2023/06/04 08:29:05;;;;;;;3.60;1.42;;;33.70;18.50;;;;;;5054668;28;20028;-69
2023/06/04 08:31:31;;;;;;;1.30;1.20;;;32.90;18.00;;;;;;5054685;28;20155;-69
2023/06/04 08:33:57;;;;;;;1.88;1.33;;;31.70;20.90;;;;;;5054249;28;20036;-69
2023/06/04 08:36:22;;;;;;;1.98;1.33;;;32.40;20.60;;;;;;5054604;28;20037;-69
2023/06/04 08:38:50;;;;;;;4.20;1.45;;;33.10;19.40;;;;;;5054202;28;20086;-69
2023/06/04 08:41:23;;;;;;;3.08;1.30;;;32.60;18.80;;;;;;5054626;28;20557;-69
2023/06/04 08:43:49;;;;;;;5.93;1.45;;;31.70;19.80;;;;;;5054110;28;20070;-69
2023/06/04 08:46:17;;;;;;;1.45;1.20;;;32.50;20.60;;;;;;5054389;28;20025;-69
2023/06/04 08:48:43;;;;;;;1.63;1.30;;;33.30;20.00;;;;;;5053660;28;20545;-68
2023/06/04 08:51:11;;;;;;;1.90;1.33;;;33.80;20.90;;;;;;5054530;28;20120;-69
2023/06/04 08:53:37;;;;;;;1.58;1.20;;;33.70;20.80;;;;;;5036243;28;20032;-68
2023/06/04 08:56:03;;;;;;;2.15;1.25;;;33.20;18.10;;;;;;5054362;28;20025;-68
2023/06/04 08:58:35;;;;;;;1.45;0.93;;;31.30;19.80;;;;;;5053971;28;20100;-69
2023/06/04 09:01:01;;;;;;;1.92;1.05;;;29.70;22.60;;;;;;5054007;28;20028;-68
2023/06/04 09:03:31;;;;;;;2.50;1.08;;;29.50;20.80;;;;;;5053871;28;20029;-68
2023/06/04 09:05:57;;;;;;;5.40;1.50;;;29.90;21.20;;;;;;5053997;28;20021;-68
2023/06/04 09:08:25;;;;;;;2.33;1.27;;;;;;;;;;5053778;28;20407;-68
2023/06/04 09:10:53;;;;;;;3.90;1.85;;;;;;;;;;5053989;28;20067;-68
2023/06/04 09:13:22;;;;;;;1.73;1.25;;;;;;;;;;5054117;28;20028;-68
2023/06/04 09:15:58;;;;;;;3.90;1.05;;;;;;;;;;5053750;28;20025;-68
2023/06/04 09:18:26;;;;;;;4.78;1.33;;;28.00;21.40;;;;;;5053663;28;20025;-69
2023/06/04 09:21:07;;;;;;;1.65;1.13;;;28.00;21.50;;;;;;5053631;28;20094;-69
2023/06/04 09:23:40;;;;;;;1.45;1.08;;;28.70;23.70;;;;;;5053929;28;20074;-68
2023/06/04 09:26:07;;;;;;;4.25;1.40;;;29.70;22.50;;;;;;5053486;28;20070;-68
2023/06/04 09:28:33;;;;;;;2.00;0.90;;;30.90;22.00;;;;;;5053516;28;20025;-68
2023/06/04 09:30:59;;;;;;;3.60;1.13;;;;;;;;;;5053549;28;20052;-69
2023/06/04 09:33:26;;;;;;;5.18;1.17;;;;;;;;;;5053574;28;20021;-68
2023/06/04 09:35:58;;;;;;;4.43;1.40;;;29.40;21.30;;;;;;5053269;28;20045;-68
2023/06/04 09:38:34;;;;;;;1.40;1.05;;;29.20;19.80;;;;;;5053430;28;20471;-68
2023/06/04 09:41:00;;;;;;;3.60;1.17;;;30.00;21.10;;;;;;5053600;28;20045;-69
2023/06/04 09:43:26;;;;;;;2.53;1.42;;;30.40;22.40;;;;;;5053398;28;20033;-69
2023/06/04 09:45:52;;;;;;;2.42;1.05;;;30.30;18.30;;;;;;5053390;28;20024;-70
2023/06/04 09:48:22;;;;;;;2.83;1.25;;;30.60;20.00;;;;;;5053231;28;20017;-69
2023/06/04 09:50:48;;;;;;;1.27;1.02;;;30.60;18.20;;;;;;5053339;28;20164;-67
2023/06/04 09:53:22;;;;;;;1.90;1.10;;;30.40;20.70;;;;;;5053429;28;20557;-68
2023/06/04 09:56:03;;;;;;;2.60;0.85;;;30.20;21.70;;;;;;5053212;28;20226;-68
2023/06/04 09:58:29;;;;;;;1.75;1.02;;;30.60;20.60;;;;;;5052912;28;20025;-68
2023/06/04 10:00:57;;;;;;;2.00;1.00;;;;;;;;;;5052948;28;20479;-69
2023/06/04 10:03:25;;;;;;;2.33;1.15;;;;;;;;;;5052049;28;20102;-68
2023/06/04 10:05:53;;;;;;;1.60;1.00;;;;;;;;;;5052870;28;20031;-69
2023/06/04 10:08:20;;;;;;;1.40;1.10;;;;;;;;;;5052944;28;20422;-68
2023/06/04 10:10:46;;;;;;;3.35;1.20;;;;;;;;;;5052965;28;20025;-68
2023/06/04 10:13:17;;;;;;;1.73;1.08;;;;;;;;;;5052879;28;20029;-68
2023/06/04 10:15:43;;;;;;;2.67;1.50;;;;;;;;;;5052712;28;20021;-69
2023/06/04 10:18:10;;;;;;;1.75;1.10;;;;;;;;;;5052517;28;20033;-68
2023/06/04 10:20:36;;;;;;;3.50;1.58;;;;;;;;;;5052724;28;20485;-68
2023/06/04 10:23:04;;;;;;;2.10;1.40;;;;;;;;;;5052648;28;20021;-67
2023/06/04 10:25:30;;;;;;;1.73;1.38;;;;;;;;;;5052301;28;20021;-68
2023/06/04 10:27:56;;;;;;;1.52;1.00;;;;;;;;;;5052393;28;20387;-69
2023/06/04 10:30:22;;;;;;;2.20;1.13;;;;;;;;;;5052446;28;20025;-69
2023/06/04 10:32:48;;;;;;;3.40;1.30;;;;;;;;;;5052639;28;20112;-69
2023/06/04 10:35:15;;;;;;;3.53;1.30;;;;;;;;;;5051854;28;20033;-69
2023/06/04 10:37:41;;;;;;;2.35;1.33;;;;;;;;;;5051763;28;20055;-69
2023/06/04 10:40:08;;;;;;;5.32;1.40;;;;;;;;;;5052067;28;20036;-68
2023/06/04 10:42:41;;;;;;;2.20;1.33;;;;;;;;;;5051123;28;20025;-69
2023/06/04 10:45:08;;;;;;;4.00;1.55;;;;;;;;;;5039735;28;20022;-69
2023/06/04 10:47:37;;;;;;;6.18;1.40;;;;;;;;;;5047342;28;20091;-70
2023/06/04 10:50:13;;;;;;;5.53;1.70;;;;;;;;;;5038568;28;20017;-69
2023/06/04 10:52:50;;;;;;;1.08;0.95;;;;;;;;;;5030310;28;20432;-68
2023/06/04 10:55:16;;;;;;;1.58;0.88;;;;;;;;;;5030347;28;20049;-69
2023/06/04 10:57:52;;;;;;;2.17;1.17;;;;;;;;;;5046482;28;20451;-69
2023/06/04 11:00:18;;;;;;;2.63;1.40;;;;;;;;;;5044952;28;20155;-69
2023/06/04 11:02:57;;;;;;;3.10;1.50;;;;;;;;;;5049121;28;20021;-69
2023/06/04 11:05:34;;;;;;;2.50;1.48;;;;;;;;;;5042541;28;20028;-67
2023/06/04 11:08:03;;;;;;;3.35;1.40;;;;;;;;;;5047688;28;20486;-67
2023/06/04 11:10:34;;;;;;;3.30;1.10;;;;;;;;;;5045550;28;20150;-69
2023/06/04 11:13:00;;;;;;;3.97;1.40;;;;;;;;;;5041840;28;20020;-69
2023/06/04 11:15:26;;;;;;;2.95;1.80;;;;;;;;;;5050364;28;20033;-68
2023/06/04 11:17:52;;;;;;;5.18;1.40;;;;;;;;;;5047921;28;20024;-69
2023/06/04 11:20:19;;;;;;;1.98;1.13;;;;;;;;;;5038902;28;20039;-68
2023/06/04 11:23:11;;;;;;;4.65;1.42;;;;;;;;;;5049639;28;20036;-69
2023/06/04 11:25:37;;;;;;;1.98;1.23;;;;;;;;;;5042584;28;20521;-69
2023/06/04 11:28:03;;;;;;;1.60;1.10;;;;;;;;;;5048975;28;20032;-70
2023/06/04 11:30:29;;;;;;;1.98;1.10;;;;;;;;;;5024441;28;20499;-69
2023/06/04 11:33:05;;;;;;;3.55;1.35;;;;;;;;;;5048968;28;20031;-69
2023/06/04 11:35:32;;;;;;;7.40;1.60;;;;;;;;;;5031495;28;20037;-68
2023/06/04 11:37:58;;;;;;;3.50;1.70;;;;;;;;;;5050974;28;20027;-69
2023/06/04 11:40:26;;;;;;;3.45;1.70;;;;;;;;;;5050365;28;20032;-69
2023/06/04 11:42:52;;;;;;;3.30;1.52;;;;;;;;;;5051025;28;20036;-68
2023/06/04 11:45:19;;;;;;;1.85;1.23;;;;;;;;;;5043347;28;20505;-69
2023/06/04 11:47:47;;;;;;;1.90;1.48;;;;;;;;;;5052808;28;20096;-69
2023/06/04 11:50:13;;;;;;;2.15;1.40;;;;;;;;;;5037765;28;20040;-68
2023/06/04 11:52:39;;;;;;;2.78;1.30;;;;;;;;;;5055582;28;20025;-67
2023/06/04 11:55:08;;;;;;;3.15;1.70;;;;;;;;;;5054328;28;20506;-68
2023/06/04 11:57:35;;;;;;;3.72;1.42;;;;;;;;;;5053416;28;20025;-68
2023/06/04 12:00:01;;;;;;;1.45;1.15;;;;;;;;;;5053480;28;20021;-69
2023/06/04 12:02:27;;;;;;;5.78;1.10;;;;;;;;;;5053851;28;20115;-68
2023/06/04 12:04:53;;;;;;;4.97;1.35;;;;;;;;;;5054090;28;20025;-68
2023/06/04 12:07:24;;;;;;;10.15;1.85;;;;;;;;;;5045843;28;20086;-69
2023/06/04 12:09:50;;;;;;;3.05;1.60;;;;;;;;;;5041933;28;20102;-68
2023/06/04 12:12:21;;;;;;;2.70;1.30;;;;;;;;;;5044480;28;20033;-68
2023/06/04 12:14:47;;;;;;;5.78;1.48;;;;;;;;;;5049810;28;20088;-69
2023/06/04 12:17:13;;;;;;;1.25;1.15;;;;;;;;;;5038795;28;20622;-68
2023/06/04 12:19:50;;;;;;;2.58;1.90;;;;;;;;;;5044746;28;20055;-69
2023/06/04 12:22:16;;;;;;;2.15;1.30;;;;;;;;;;5034878;28;20025;-68
2023/06/04 12:24:53;;;;;;;1.52;1.30;;;;;;;;;;5035205;28;20022;-67
2023/06/04 12:27:19;;;;;;;6.03;2.13;;;;;;;;;;5035474;28;20124;-77
2023/06/04 12:29:57;;;;;;;2.15;1.58;;;;;;;;;;5049981;28;20154;-77
2023/06/04 12:32:23;;;;;;;4.05;1.58;;;;;;;;;;5054997;28;20388;-77
2023/06/04 12:34:49;;;;;;;2.42;1.60;;;;;;;;;;5054501;28;20052;-76
2023/06/04 12:37:16;;;;;;;5.13;1.40;;;;;;;;;;5055210;28;20534;-76
2023/06/04 12:39:42;;;;;;;9.20;6.10;;;;;;;;;;5055029;28;20044;-75
2023/06/04 12:42:09;;;;;;;4.38;1.70;;;;;;;;;;5054765;28;20491;-75
2023/06/04 12:44:39;;;;;;;3.10;1.10;;;;;;;;;;5036145;28;20029;-75
2023/06/04 12:47:05;;;;;;;58.13;38.45;;;;;;;;;;5055373;28;20086;-69
2023/06/04 12:49:31;;;;;;;288.20;220.48;;;;;;;;;;5057282;28;20056;-68
2023/06/04 12:51:58;;;;;;;5.50;4.13;;;;;;;;;;5039975;28;20029;-68
2023/06/04 12:54:24;;;;;;;2.10;1.45;;;;;;;;;;5057134;28;20032;-70
2023/06/04 12:56:50;;;;;;;2.83;1.02;;;;;;;;;;5054420;28;20021;-68
2023/06/04 12:59:16;;;;;;;3.10;1.77;;;;;;;;;;5053555;28;20481;-68
2023/06/04 13:01:42;;;;;;;4.53;2.22;;;;;;;;;;5053925;28;20024;-68
2023/06/04 13:04:08;;;;;;;3.20;2.10;;;;;;;;;;5053977;28;20029;-68
2023/06/04 13:06:35;;;;;;;10.40;7.45;;;;;;;;;;5053441;28;20048;-68
2023/06/04 13:09:03;;;;;;;9.27;6.25;;;;;;;;;;5054071;28;20021;-68
2023/06/04 13:11:29;;;;;;;7.43;3.97;;;;;;;;;;5054082;28;20025;-67
2023/06/04 13:13:55;;;;;;;2.08;1.17;;;;;;;;;;5054070;28;20078;-68
2023/06/04 13:16:21;;;;;;;3.78;1.58;;;;;;;;;;5053361;28;20512;-67
2023/06/04 13:18:47;;;;;;;2.45;1.40;;;;;;;;;;5052017;28;20021;-67
2023/06/04 13:21:13;;;;;;;2.92;1.52;;;;;;;;;;5053963;28;20025;-67
2023/06/04 13:23:39;;;;;;;11.32;6.90;;;;;;;;;;5052072;28;20111;-67
2023/06/04 13:26:05;;;;;;;4.90;3.97;;;;;;;;;;5053848;28;20108;-67
2023/06/04 13:28:31;;;;;;;4.85;3.03;;;;;;;;;;5053504;28;20028;-67
2023/06/04 13:30:57;;;;;;;4.97;1.42;;;;;;;;;;5052595;28;20091;-67
2023/06/04 13:33:23;;;;;;;7.22;5.25;;;;;;;;;;5052903;28;20032;-67
2023/06/04 13:35:50;;;;;;;5.40;1.90;;;;;;;;;;5054569;28;20078;-67
2023/06/04 13:38:16;;;;;;;2.53;1.65;;;;;;;;;;5053310;28;20052;-67
2023/06/04 13:40:43;;;;;;;3.55;1.40;;;;;;;;;;5052922;28;20106;-66
2023/06/04 13:43:09;;;;;;;2.55;1.45;;;;;;;;;;5051537;28;20021;-66
2023/06/04 13:45:35;;;;;;;3.55;1.52;;;;;;;;;;5051305;28;20027;-67
2023/06/04 13:48:05;;;;;;;3.47;1.45;;;;;;;;;;5051296;28;20021;-67
2023/06/04 13:50:32;;;;;;;5.70;1.88;;;;;;;;;;5033329;28;20021;-67
2023/06/04 13:52:58;;;;;;;4.70;2.30;;;;;;;;;;5051440;28;20021;-67
2023/06/04 13:55:24;;;;;;;3.00;2.33;;;;;;;;;;5051820;28;20032;-67
2023/06/04 13:57:50;;;;;;;2.50;1.38;;;;;;;;;;5052822;28;20398;-67
2023/06/04 14:00:16;;;;;;;6.55;1.60;;;;;;;;;;5052756;28;20033;-67
2023/06/04 14:02:42;;;;;;;4.05;2.15;;;;;;;;;;5052799;28;20027;-66